Time;durP1;ratioP1;P1;durP2;ratioP2;P2;SDS_P1;SDS_P2;PMS_P1;PMS_P2;Temp;Humidity;BMP_temperature;BMP_pressure;BME280_temperature;BME280_humidity;BME280_pressure;Samples;Min_cycle;Max_cycle;Signal;HPM_P1;HPM_P2
2022/11/29 00:01:36;;;;;;;86.00;48.20;;;;;;;-1.71;85.83;99259.77;86441;1289;23577;-71
2022/11/29 00:03:38;;;;;;;89.30;47.70;;;;;;;-1.71;85.82;99258.75;86409;1283;22508;-72
2022/11/29 00:05:39;;;;;;;83.90;45.20;;;;;;;-1.72;85.79;99255.98;86387;1283;98803;-71
2022/11/29 00:07:40;;;;;;;91.50;48.50;;;;;;;-1.71;85.84;99257.54;86514;1284;23493;-72
2022/11/29 00:09:41;;;;;;;89.30;46.90;;;;;;;-1.72;85.85;99257.52;86283;1280;22502;-72
2022/11/29 00:14:03;;;;;;;94.60;46.90;;;;;;;-1.75;85.76;99262.85;86479;1288;22530;-72
2022/11/29 00:16:07;;;;;;;96.40;48.00;;;;;;;-1.76;85.66;99262.34;86471;1283;22490;-71
2022/11/29 00:18:08;;;;;;;83.00;46.80;;;;;;;-1.77;85.72;99262.33;86496;1291;22523;-73
2022/11/29 00:20:10;;;;;;;89.50;49.00;;;;;;;-1.77;85.83;99261.81;86479;1296;23230;-73
2022/11/29 00:22:11;;;;;;;80.50;44.60;;;;;;;-1.78;85.71;99256.63;86400;1286;99664;-73
2022/11/29 00:24:13;;;;;;;76.80;43.30;;;;;;;-1.79;85.78;99255.08;86458;1283;22507;-72
2022/11/29 00:26:14;;;;;;;85.40;45.70;;;;;;;-1.82;85.50;99254.71;86259;1286;25864;-73
2022/11/29 00:28:15;;;;;;;91.50;44.00;;;;;;;-1.87;85.63;99258.30;86385;1279;99904;-72
2022/11/29 00:30:17;;;;;;;81.20;44.60;;;;;;;-1.93;85.55;99258.09;86519;1284;22580;-72
2022/11/29 00:32:19;;;;;;;81.90;44.90;;;;;;;-1.96;85.41;99257.89;86572;1284;22500;-73
2022/11/29 00:34:21;;;;;;;;;;;;;;;-2.00;85.44;99254.59;86399;1283;99383;-72
2022/11/29 00:36:22;;;;;;;81.90;43.60;;;;;;;-2.02;85.44;99252.34;86688;1283;22488;-72
2022/11/29 00:38:24;;;;;;;87.10;45.30;;;;;;;-2.03;85.58;99253.20;86587;1283;22635;-71
2022/11/29 00:40:25;;;;;;;87.00;47.00;;;;;;;-2.06;85.42;99251.63;86338;1287;99343;-72
2022/11/29 00:42:26;;;;;;;85.80;47.80;;;;;;;-2.08;85.58;99250.91;86524;1294;22507;-71
2022/11/29 00:44:27;;;;;;;89.60;49.30;;;;;;;-2.09;85.41;99249.69;86465;1308;22551;-72
2022/11/29 00:46:28;;;;;;;88.90;49.50;;;;;;;-2.12;85.46;99247.62;86497;1286;98116;-71
2022/11/29 00:48:29;;;;;;;86.80;48.80;;;;;;;-2.15;85.48;99248.12;86575;1283;22627;-72
2022/11/29 00:50:30;;;;;;;;;;;;;;;-2.16;85.46;99245.34;86675;1281;25232;-73
2022/11/29 00:52:31;;;;;;;82.10;45.40;;;;;;;-2.20;85.21;99246.70;86506;1291;85555;-72
2022/11/29 00:54:32;;;;;;;78.40;42.60;;;;;;;-2.24;85.44;99245.48;86753;1289;22615;-73
2022/11/29 00:56:33;;;;;;;86.70;44.70;;;;;;;-2.25;85.38;99245.11;86461;1282;22444;-70
2022/11/29 00:58:36;;;;;;;82.00;44.90;;;;;;;-2.24;85.51;99244.27;86459;1285;99848;-71
2022/11/29 01:00:36;;;;;;;83.30;44.00;;;;;;;-2.24;85.57;99241.51;86557;1292;25322;-73
2022/11/29 01:02:38;;;;;;;80.40;45.00;;;;;;;-2.27;85.53;99241.84;86480;1277;22609;-71
2022/11/29 01:04:39;;;;;;;87.40;45.10;;;;;;;-2.27;85.50;99247.17;86449;1277;98230;-71
2022/11/29 01:06:39;;;;;;;82.80;47.00;;;;;;;-2.27;85.64;99246.48;86567;1284;22572;-74
2022/11/29 01:08:41;;;;;;;89.00;51.50;;;;;;;-2.28;85.57;99244.06;86436;1279;25666;-71
2022/11/29 01:10:42;;;;;;;84.40;48.70;;;;;;;-2.26;85.56;99243.73;86311;1279;99059;-72
2022/11/29 01:12:43;;;;;;;108.10;56.20;;;;;;;-2.25;85.64;99242.19;86482;1286;23359;-73
2022/11/29 01:14:45;;;;;;;109.10;59.00;;;;;;;-2.24;85.80;99236.35;86603;1284;22516;-73
2022/11/29 01:16:46;;;;;;;103.10;58.30;;;;;;;-2.21;85.67;99238.27;86418;1283;99614;-71
2022/11/29 01:18:47;;;;;;;94.20;53.60;;;;;;;-2.20;85.69;99240.84;86466;1291;22504;-71
2022/11/29 01:20:59;;;;;;;98.30;55.00;;;;;;;-2.22;85.88;99235.34;86374;1287;22443;-71
2022/11/29 01:23:00;;;;;;;100.30;54.60;;;;;;;-2.23;85.75;99239.44;86454;1282;99208;-72
2022/11/29 01:25:03;;;;;;;101.70;54.40;;;;;;;-2.25;85.75;99237.20;86544;1288;24884;-71
2022/11/29 01:27:04;;;;;;;99.80;54.10;;;;;;;-2.27;85.80;99233.58;86446;1287;22502;-72
2022/11/29 01:29:05;;;;;;;101.20;52.80;;;;;;;-2.26;85.90;99234.60;86548;1283;98040;-71
2022/11/29 01:31:12;;;;;;;95.70;52.40;;;;;;;-2.27;85.87;99231.52;86413;1287;25016;-72
2022/11/29 01:33:13;;;;;;;99.60;55.70;;;;;;;-2.26;85.85;99231.70;86500;1279;22481;-73
2022/11/29 01:35:14;;;;;;;100.20;52.00;;;;;;;-2.26;85.76;99226.17;86195;1283;99180;-72
2022/11/29 01:37:16;;;;;;;97.00;53.50;;;;;;;-2.27;85.80;99224.98;86308;1280;22609;-73
2022/11/29 01:39:17;;;;;;;93.00;49.40;;;;;;;-2.28;85.80;99219.10;86574;1282;22634;-72
2022/11/29 01:41:24;;;;;;;96.80;50.50;;;;;;;-2.28;85.84;99219.79;86176;1286;99273;-72
2022/11/29 01:43:25;;;;;;;99.10;50.80;;;;;;;-2.27;85.89;99220.31;86455;1294;22437;-70
2022/11/29 01:45:27;;;;;;;86.70;49.00;;;;;;;-2.27;85.94;99222.55;86536;1284;22515;-72
2022/11/29 01:47:29;;;;;;;86.40;47.80;;;;;;;-2.29;85.76;99221.69;86478;1283;98141;-72
2022/11/29 01:49:44;;;;;;;95.80;49.10;;;;;;;-2.33;85.62;99219.41;86430;1293;23063;-73
2022/11/29 01:51:50;;;;;;;82.70;45.90;;;;;;;-2.35;85.63;99219.05;86554;1281;23186;-72
2022/11/29 01:53:53;;;;;;;91.80;46.00;;;;;;;-2.35;85.72;99220.61;86412;1278;99109;-72
2022/11/29 01:56:00;;;;;;;79.30;43.90;;;;;;;-2.36;85.67;99219.22;86557;1284;22668;-70
2022/11/29 01:58:02;;;;;;;85.40;46.50;;;;;;;-2.37;85.73;99219.38;86573;1283;22568;-71
2022/11/29 02:00:10;;;;;;;81.50;43.00;;;;;;;-2.37;85.57;99222.81;86424;1294;99278;-72
2022/11/29 02:02:17;;;;;;;79.20;42.80;;;;;;;-2.41;85.72;99224.16;86492;1286;22519;-72
2022/11/29 02:04:18;;;;;;;86.50;45.30;;;;;;;-2.43;85.61;99225.02;86515;1284;98526;-72
2022/11/29 02:06:21;;;;;;;92.80;47.50;;;;;;;-2.43;85.71;99223.12;86413;1286;22478;-71
2022/11/29 02:08:28;;;;;;;80.80;43.40;;;;;;;-2.41;85.58;99222.44;86514;1284;22477;-70
2022/11/29 02:11:07;;;;;;;75.60;43.30;;;;;;;-2.41;85.66;99219.19;86383;1283;221337;-71
2022/11/29 02:13:21;;;;;;;74.20;41.70;;;;;;;-2.40;85.62;99225.20;86580;1284;26620;-72
2022/11/29 02:15:37;;;;;;;90.90;44.90;;;;;;;-2.40;85.78;99221.77;86367;1287;24273;-71
2022/11/29 02:18:11;;;;;;;86.60;45.90;;;;;;;-2.39;85.85;99219.88;86337;1285;99251;-72
2022/11/29 02:20:33;;;;;;;93.70;45.20;;;;;;;-2.40;85.90;99223.31;86472;1277;22521;-73
2022/11/29 02:22:44;;;;;;;86.20;45.40;;;;;;;-2.42;85.90;99225.02;86510;1283;99140;-73
2022/11/29 02:24:45;;;;;;;81.00;44.10;;;;;;;-2.45;85.79;99228.95;86617;1283;22527;-74
2022/11/29 02:26:58;;;;;;;89.70;48.60;;;;;;;-2.49;85.79;99231.33;86542;1277;22585;-71
2022/11/29 02:29:28;;;;;;;89.20;48.40;;;;;;;-2.52;85.76;99230.61;86477;1285;99137;-71
2022/11/29 02:32:03;;;;;;;91.20;45.00;;;;;;;-2.58;85.70;99227.81;86494;1307;23550;-71
2022/11/29 02:34:10;;;;;;;89.70;46.50;;;;;;;-2.62;85.75;99228.97;86517;1277;26115;-73
2022/11/29 02:36:33;;;;;;;95.30;47.00;;;;;;;-2.66;85.82;99227.73;86569;1280;23912;-71
2022/11/29 02:39:01;;;;;;;97.80;47.00;;;;;;;-2.70;85.74;99231.84;86619;1285;24021;-72
2022/11/29 02:41:32;;;;;;;94.10;45.30;;;;;;;-2.72;85.97;99234.91;86505;1275;99526;-71
2022/11/29 02:43:48;;;;;;;95.00;47.30;;;;;;;-2.74;85.80;99234.38;86582;1281;22417;-77
2022/11/29 02:46:06;;;;;;;97.60;49.40;;;;;;;-2.76;85.94;99231.09;86446;1277;22668;-72
2022/11/29 02:48:40;;;;;;;101.90;47.60;;;;;;;-2.77;86.00;99231.94;86482;1283;99429;-71
2022/11/29 02:50:53;;;;;;;110.10;50.00;;;;;;;-2.76;86.03;99234.69;86485;1284;22541;-72
2022/11/29 02:53:18;;;;;;;91.40;46.80;;;;;;;-2.77;86.04;99232.10;86530;1285;99337;-72
2022/11/29 02:55:40;;;;;;;104.50;48.50;;;;;;;-2.79;86.12;99226.92;86601;1281;22481;-71
2022/11/29 02:57:56;;;;;;;;;;;;;;;-2.76;86.12;99231.77;86801;1283;22516;-72
2022/11/29 03:00:17;;;;;;;112.70;53.50;;;;;;;-2.77;86.30;99231.42;86407;1293;84156;-72
2022/11/29 03:02:43;;;;;;;104.00;54.10;;;;;;;-2.76;86.26;99234.36;86471;1287;22600;-71
2022/11/29 03:04:56;;;;;;;107.80;50.30;;;;;;;-2.75;86.25;99237.45;86545;1283;98212;-72
2022/11/29 03:07:26;;;;;;;101.80;50.40;;;;;;;-2.75;86.31;99245.89;86660;1277;22844;-71
2022/11/29 03:09:53;;;;;;;112.90;51.50;;;;;;;-2.73;86.33;99247.80;86656;1277;23329;-72
2022/11/29 03:12:05;;;;;;;102.70;50.60;;;;;;;-2.71;86.38;99249.02;86425;1284;99360;-70
2022/11/29 03:14:25;;;;;;;118.40;50.20;;;;;;;-2.68;86.33;99251.63;86580;1284;22462;-71
2022/11/29 03:16:45;;;;;;;96.20;47.80;;;;;;;-2.65;86.33;99253.04;86351;1285;98479;-74
2022/11/29 03:19:12;;;;;;;105.90;48.50;;;;;;;-2.60;86.44;99255.48;86492;1290;23332;-71
2022/11/29 03:21:16;;;;;;;99.60;46.40;;;;;;;-2.57;86.41;99256.03;86015;1282;23107;-72
2022/11/29 03:23:23;;;;;;;113.30;45.40;;;;;;;-2.54;86.41;99256.74;86034;1286;99215;-73
2022/11/29 03:25:27;;;;;;;113.00;46.90;;;;;;;-2.52;86.37;99261.05;86024;1283;24274;-71
2022/11/29 03:27:42;;;;;;;233.50;53.50;;;;;;;-2.49;86.54;99260.56;86092;1297;24271;-71
2022/11/29 03:29:57;;;;;;;172.00;50.30;;;;;;;-2.48;86.45;99258.69;86114;1289;100533;-72
2022/11/29 03:32:15;;;;;;;165.70;48.40;;;;;;;-2.46;86.51;99258.88;85984;1297;24148;-71
2022/11/29 03:34:31;;;;;;;166.20;50.70;;;;;;;-2.46;86.45;99258.54;85962;1283;100214;-73
2022/11/29 03:36:42;;;;;;;176.30;52.80;;;;;;;-2.45;86.55;99259.59;86186;1283;22563;-72
2022/11/29 03:38:46;;;;;;;223.20;53.80;;;;;;;-2.43;86.47;99262.02;85841;1291;22677;-72
2022/11/29 03:40:53;;;;;;;169.40;51.90;;;;;;;-2.43;86.50;99264.94;86290;1288;98258;-71
2022/11/29 03:43:18;;;;;;;180.70;50.80;;;;;;;-2.42;86.55;99267.35;85918;1285;22516;-71
2022/11/29 03:45:28;;;;;;;147.00;47.90;;;;;;;-2.40;86.51;99269.42;85870;1289;24068;-70
2022/11/29 03:47:48;;;;;;;128.30;49.70;;;;;;;-2.39;86.59;99270.63;85973;1282;100142;-71
2022/11/29 03:50:15;;;;;;;140.20;52.90;;;;;;;-2.36;86.60;99275.83;86053;1289;24393;-71
2022/11/29 03:52:23;;;;;;;174.00;50.90;;;;;;;-2.35;86.59;99276.02;85932;1291;98569;-73
2022/11/29 03:54:31;;;;;;;152.30;48.70;;;;;;;-2.34;86.69;99279.83;86005;1292;24265;-71
2022/11/29 03:56:35;;;;;;;112.90;46.60;;;;;;;-2.34;86.65;99283.27;86282;1289;22469;-73
2022/11/29 03:58:56;;;;;;;95.80;46.40;;;;;;;-2.31;86.84;99284.48;86466;1286;99449;-71
2022/11/29 04:01:21;;;;;;;128.90;47.10;;;;;;;-2.26;86.86;99286.59;86559;1294;23052;-72
2022/11/29 04:03:25;;;;;;;182.30;46.70;;;;;;;-2.23;86.63;99285.76;86632;1283;22538;-71
2022/11/29 04:05:55;;;;;;;233.30;45.50;;;;;;;-2.23;86.83;99287.65;86683;1283;99344;-72
2022/11/29 04:08:14;;;;;;;202.20;40.90;;;;;;;-2.28;86.66;99285.36;87007;1287;22952;-70
2022/11/29 04:10:31;;;;;;;173.70;45.00;;;;;;;-2.34;86.68;99284.28;87165;1305;99636;-72
2022/11/29 04:13:09;;;;;;;181.30;43.60;;;;;;;-2.35;86.56;99286.85;87828;1283;23239;-73
2022/11/29 04:15:47;;;;;;;175.20;46.60;;;;;;;-2.35;86.83;99286.35;87354;1290;22988;-71
2022/11/29 04:18:07;;;;;;;211.20;47.80;;;;;;;-2.32;86.71;99289.29;86668;1289;100244;-72
2022/11/29 04:20:17;;;;;;;207.10;44.30;;;;;;;-2.32;86.81;99291.87;86863;1289;22501;-72
2022/11/29 04:22:24;;;;;;;189.80;47.50;;;;;;;-2.32;86.75;99295.49;86632;1289;98405;-71
2022/11/29 04:24:58;;;;;;;172.50;47.10;;;;;;;-2.31;86.65;99296.87;86386;1287;24243;-71
2022/11/29 04:27:40;;;;;;;162.90;47.30;;;;;;;-2.32;86.76;99296.34;86206;1286;22467;-72
2022/11/29 04:30:02;;;;;;;184.00;43.80;;;;;;;-2.34;86.77;99295.81;86323;1289;98428;-73
2022/11/29 04:32:41;;;;;;;188.20;44.60;;;;;;;-2.35;86.84;99297.52;86267;1290;22538;-72
2022/11/29 04:34:54;;;;;;;180.60;45.20;;;;;;;-2.36;86.88;99301.81;86244;1287;98580;-71
2022/11/29 04:36:55;;;;;;;217.90;44.00;;;;;;;-2.36;86.85;99305.08;86214;1290;24347;-73
2022/11/29 04:39:06;;;;;;;249.70;48.60;;;;;;;-2.37;86.82;99305.77;86258;1290;26138;-71
2022/11/29 04:41:26;;;;;;;202.50;51.20;;;;;;;-2.37;86.85;99310.40;86267;1284;99371;-72
2022/11/29 04:43:46;;;;;;;149.00;44.90;;;;;;;-2.37;86.92;99314.20;86303;1289;23373;-72
2022/11/29 04:46:00;;;;;;;275.40;46.60;;;;;;;-2.37;86.87;99320.22;86381;1284;22527;-72
2022/11/29 04:48:20;;;;;;;205.20;48.30;;;;;;;-2.38;86.85;99325.37;86524;1282;99518;-70
2022/11/29 04:50:23;;;;;;;193.00;44.40;;;;;;;-2.38;86.90;99327.96;86512;1283;22505;-71
2022/11/29 04:52:54;;;;;;;127.30;41.30;;;;;;;-2.38;86.88;99336.05;86444;1284;98542;-71
2022/11/29 04:55:36;;;;;;;131.60;40.80;;;;;;;-2.37;86.90;99332.27;86542;1284;26455;-73
2022/11/29 04:58:14;;;;;;;129.90;40.20;;;;;;;-2.38;86.86;99333.64;86496;1277;25279;-72
2022/11/29 05:00:20;;;;;;;194.90;38.70;;;;;;;-2.39;86.87;99342.23;86550;1284;22570;-72
2022/11/29 05:02:52;;;;;;;196.90;39.70;;;;;;;-2.39;86.91;99342.73;86598;1284;26528;-71
2022/11/29 05:05:23;;;;;;;138.60;38.00;;;;;;;-2.41;86.95;99346.67;86570;1284;99884;-72
2022/11/29 05:07:45;;;;;;;143.40;36.30;;;;;;;-2.43;86.95;99348.55;86610;1276;22570;-72
2022/11/29 05:10:15;;;;;;;134.80;41.80;;;;;;;-2.44;86.90;99345.27;86504;1286;24430;-70
2022/11/29 05:12:41;;;;;;;141.60;38.80;;;;;;;-2.43;87.00;99347.52;86609;1277;22532;-71
2022/11/29 05:15:22;;;;;;;85.60;34.00;;;;;;;-2.43;87.08;99348.39;86605;1284;22509;-72
2022/11/29 05:17:22;;;;;;;122.50;35.20;;;;;;;-2.45;87.08;99350.95;86507;1279;100455;-72
2022/11/29 05:19:46;;;;;;;124.70;36.40;;;;;;;-2.47;86.96;99353.50;86602;1281;22534;-75
2022/11/29 05:22:12;;;;;;;128.90;36.60;;;;;;;-2.48;86.95;99356.08;86645;1277;22478;-72
2022/11/29 05:24:15;;;;;;;78.20;33.20;;;;;;;-2.49;87.15;99360.36;86530;1285;98661;-71
2022/11/29 05:26:29;;;;;;;95.80;36.40;;;;;;;-2.51;86.98;99367.92;86575;1283;25402;-70
2022/11/29 05:29:15;;;;;;;95.90;34.80;;;;;;;-2.51;87.10;99364.99;86459;1285;101062;-73
2022/11/29 05:31:38;;;;;;;92.90;31.80;;;;;;;-2.52;87.15;99369.11;86285;1286;23507;-72
2022/11/29 05:34:02;;;;;;;90.50;34.20;;;;;;;-2.50;87.19;99372.39;86184;1283;22604;-71
2022/11/29 05:36:29;;;;;;;149.40;36.00;;;;;;;-2.47;87.15;99374.84;86200;1287;99192;-71
2022/11/29 05:39:09;;;;;;;121.80;34.70;;;;;;;-2.47;87.22;99375.53;86042;1290;24264;-73
2022/11/29 05:41:37;;;;;;;83.10;33.40;;;;;;;-2.47;87.11;99374.84;86138;1289;98208;-71
2022/11/29 05:44:06;;;;;;;89.00;33.30;;;;;;;-2.46;87.08;99379.85;86281;1297;22595;-73
2022/11/29 05:46:20;;;;;;;73.60;32.70;;;;;;;-2.44;87.09;99381.60;85899;1287;24405;-71
2022/11/29 05:48:26;;;;;;;80.70;34.10;;;;;;;-2.44;87.29;99380.72;85849;1297;23802;-71
2022/11/29 05:50:36;;;;;;;86.20;36.30;;;;;;;-2.41;87.13;99389.02;85924;1287;22807;-71
2022/11/29 05:53:01;;;;;;;82.50;35.80;;;;;;;-2.40;87.27;99386.79;85769;1287;98273;-71
2022/11/29 05:55:14;;;;;;;67.00;33.60;;;;;;;-2.40;87.32;99387.48;85740;1295;22526;-71
2022/11/29 05:57:21;;;;;;;88.30;34.70;;;;;;;-2.39;87.26;99387.83;85796;1287;24427;-73
2022/11/29 05:59:29;;;;;;;83.30;34.60;;;;;;;-2.37;87.21;99386.65;85743;1293;98079;-71
2022/11/29 06:01:46;;;;;;;76.70;34.90;;;;;;;-2.36;87.32;99389.23;85776;1287;22497;-72
2022/11/29 06:03:49;;;;;;;66.70;32.40;;;;;;;-2.36;87.30;99388.89;85645;1306;22497;-72
2022/11/29 06:06:00;;;;;;;78.80;34.50;;;;;;;-2.35;87.21;99389.61;85955;1292;99286;-71
2022/11/29 06:08:41;;;;;;;63.50;32.10;;;;;;;-2.33;87.44;99392.55;85978;1294;22690;-73
2022/11/29 06:11:16;;;;;;;;;;;;;;;-2.32;87.32;99397.55;85746;1296;98295;-72
2022/11/29 06:13:25;;;;;;;68.40;29.60;;;;;;;-2.31;87.30;99402.54;85783;1294;22699;-72
2022/11/29 06:15:46;;;;;;;81.40;32.30;;;;;;;-2.31;87.32;99398.07;85792;1287;23387;-73
2022/11/29 06:18:35;;;;;;;68.40;31.70;;;;;;;-2.31;87.13;99403.41;85625;1297;99247;-72
2022/11/29 06:21:15;;;;;;;76.50;35.10;;;;;;;-2.28;87.46;99406.88;85874;1293;23784;-72
2022/11/29 06:23:23;;;;;;;85.60;37.60;;;;;;;-2.24;87.37;99411.58;85914;1296;98687;-72
2022/11/29 06:25:47;;;;;;;81.90;37.90;;;;;;;-2.21;87.48;99410.21;86190;1299;22480;-72
2022/11/29 06:28:05;;;;;;;67.90;33.40;;;;;;;-2.17;87.52;99412.14;86205;1298;22783;-73
2022/11/29 06:30:12;;;;;;;84.80;35.40;;;;;;;-2.17;87.37;99419.70;85902;1298;99253;-73
2022/11/29 06:32:33;;;;;;;85.50;34.90;;;;;;;-2.17;87.32;99419.04;86113;1302;22544;-72
2022/11/29 06:34:55;;;;;;;82.00;36.50;;;;;;;-2.17;87.34;99420.42;86099;1300;98307;-71
2022/11/29 06:37:04;;;;;;;101.70;36.60;;;;;;;-2.15;87.40;99422.49;86215;1290;22672;-72
2022/11/29 06:39:05;;;;;;;79.60;35.60;;;;;;;-2.14;87.40;99420.80;86170;1285;22527;-73
2022/11/29 06:41:14;;;;;;;76.80;37.20;;;;;;;-2.13;87.35;99419.59;86075;1293;99233;-75
2022/11/29 06:43:16;;;;;;;89.40;33.60;;;;;;;-2.16;87.35;99419.21;86102;1290;23972;-72
2022/11/29 06:45:17;;;;;;;70.60;32.70;;;;;;;-2.15;87.35;99420.77;86033;1291;22611;-73
2022/11/29 06:47:30;;;;;;;78.80;34.70;;;;;;;-2.12;87.38;99421.14;86204;1292;98082;-71
2022/11/29 06:49:48;;;;;;;79.60;37.20;;;;;;;-2.11;87.33;99423.41;86803;1286;22507;-72
2022/11/29 06:52:23;;;;;;;78.20;32.50;;;;;;;-2.11;87.45;99428.41;86504;1302;22986;-72
2022/11/29 06:54:36;;;;;;;65.20;31.30;;;;;;;-2.12;87.38;99428.55;86442;1277;22947;-72
2022/11/29 06:56:54;;;;;;;73.30;30.50;;;;;;;-2.17;87.25;99426.95;86466;1283;22431;-74
2022/11/29 06:59:22;;;;;;;84.20;32.90;;;;;;;-2.18;87.25;99432.29;86437;1285;99548;-73
2022/11/29 07:01:42;;;;;;;58.70;30.50;;;;;;;-2.18;87.34;99432.29;86625;1279;22498;-74
2022/11/29 07:04:09;;;;;;;68.10;30.70;;;;;;;-2.17;87.49;99430.23;86830;1286;22806;-72
2022/11/29 07:06:27;;;;;;;77.60;32.70;;;;;;;-2.15;87.38;99434.90;86877;1274;98225;-73
2022/11/29 07:08:29;;;;;;;65.80;32.50;;;;;;;-2.14;87.46;99434.91;86781;1283;22566;-71
2022/11/29 07:10:33;;;;;;;82.30;31.20;;;;;;;-2.11;87.43;99439.41;86423;1298;99796;-73
2022/11/29 07:12:34;;;;;;;87.30;34.70;;;;;;;-2.07;87.52;99438.08;86732;1284;22999;-73
2022/11/29 07:14:35;;;;;;;;;;;;;;;-2.03;87.53;99435.38;86954;1284;22580;-77
2022/11/29 07:17:05;;;;;;;76.80;35.40;;;;;;;-2.06;87.50;99436.71;87228;1308;84137;-78
2022/11/29 07:19:15;;;;;;;82.20;34.20;;;;;;;-2.04;87.49;99443.80;87399;1308;24236;-76
2022/11/29 07:21:36;;;;;;;77.50;34.90;;;;;;;-2.03;87.45;99445.87;87420;1286;22524;-77
2022/11/29 07:23:59;;;;;;;74.70;34.70;;;;;;;-2.05;87.53;99451.70;87318;1304;98094;-78
2022/11/29 07:26:26;;;;;;;82.70;32.80;;;;;;;-2.05;87.31;99453.77;87336;1308;22576;-76
2022/11/29 07:29:13;;;;;;;71.60;34.60;;;;;;;-2.06;87.41;99454.97;87336;1304;98882;-77
2022/11/29 07:31:14;;;;;;;108.00;35.00;;;;;;;-2.09;87.37;99450.81;87396;1308;22527;-76
2022/11/29 07:33:36;;;;;;;78.70;35.40;;;;;;;-2.11;87.31;99449.58;87506;1293;22502;-77
2022/11/29 07:35:53;;;;;;;123.70;41.00;;;;;;;-2.10;87.47;99455.61;87886;1305;99306;-76
2022/11/29 07:38:11;;;;;;;123.00;38.40;;;;;;;-2.08;87.48;99457.00;88408;1306;22521;-77
2022/11/29 07:40:28;;;;;;;112.50;39.40;;;;;;;-2.05;87.52;99458.42;88442;1307;22486;-77
2022/11/29 07:42:44;;;;;;;114.50;42.30;;;;;;;-2.03;87.44;99457.92;88557;1293;22216;-77
2022/11/29 07:45:12;;;;;;;131.40;39.20;;;;;;;-2.00;87.62;99460.71;88243;1308;22103;-78
2022/11/29 07:47:13;;;;;;;163.30;41.30;;;;;;;-1.98;87.43;99464.36;87843;1307;98315;-76
2022/11/29 07:49:15;;;;;;;105.90;33.80;;;;;;;-2.01;87.40;99462.25;87356;1305;22577;-78
2022/11/29 07:51:16;;;;;;;81.10;36.00;;;;;;;-2.02;87.48;99467.07;87353;1284;22497;-77
2022/11/29 07:53:21;;;;;;;88.30;36.70;;;;;;;-2.04;87.32;99471.52;87037;1309;98058;-78
2022/11/29 07:55:25;;;;;;;66.10;31.20;;;;;;;-2.09;87.29;99469.06;87459;1292;25642;-77
2022/11/29 07:57:26;;;;;;;76.90;33.90;;;;;;;-2.10;87.36;99473.34;87159;1294;22493;-78
2022/11/29 07:59:27;;;;;;;73.80;30.50;;;;;;;-2.12;87.38;99473.83;87199;1304;98147;-76
2022/11/29 08:01:31;;;;;;;;;;;;;;;-2.11;87.54;99475.23;87069;1295;23218;-77
2022/11/29 08:03:34;;;;;;;82.00;33.50;;;;;;;-2.10;87.55;99475.24;87144;1300;22503;-76
2022/11/29 08:05:38;;;;;;;73.40;32.90;;;;;;;-2.10;87.44;99477.48;86990;1297;98984;-77
2022/11/29 08:07:40;;;;;;;100.40;36.00;;;;;;;-2.11;87.52;99478.33;87223;1286;25549;-77
2022/11/29 08:09:43;;;;;;;101.10;34.90;;;;;;;-2.12;87.46;99479.34;87227;1286;22619;-77
2022/11/29 08:11:44;;;;;;;95.40;36.00;;;;;;;-2.11;87.52;99474.89;87221;1294;98299;-76
2022/11/29 08:13:45;;;;;;;108.20;36.20;;;;;;;-2.11;87.54;99474.70;87165;1286;22525;-76
2022/11/29 08:15:47;;;;;;;105.00;38.40;;;;;;;-2.10;87.62;99472.31;87229;1300;22639;-77
2022/11/29 08:17:49;;;;;;;117.40;36.60;;;;;;;-2.09;87.71;99474.39;87175;1285;98261;-76
2022/11/29 08:19:51;;;;;;;77.40;35.50;;;;;;;-2.10;87.66;99471.45;87044;1296;24262;-77
2022/11/29 08:21:52;;;;;;;78.40;35.70;;;;;;;-2.06;87.70;99473.73;87100;1277;22497;-77
2022/11/29 08:23:53;;;;;;;89.90;36.90;;;;;;;-2.02;87.54;99474.64;87132;1287;99337;-76
2022/11/29 08:25:59;;;;;;;83.20;36.50;;;;;;;-2.02;87.60;99477.91;87216;1284;22548;-76
2022/11/29 08:28:04;;;;;;;75.00;35.30;;;;;;;-1.99;87.80;99482.08;87240;1307;26558;-77
2022/11/29 08:30:06;;;;;;;100.50;39.00;;;;;;;-1.97;87.75;99482.95;87269;1306;98175;-78
2022/11/29 08:32:07;;;;;;;104.50;38.70;;;;;;;-1.96;87.62;99481.76;87202;1278;24287;-76
2022/11/29 08:34:09;;;;;;;102.90;38.90;;;;;;;-1.92;87.80;99484.39;87141;1284;22542;-77
2022/11/29 08:36:20;;;;;;;115.80;39.70;;;;;;;-1.90;87.85;99490.44;86974;1311;98424;-77
2022/11/29 08:38:21;;;;;;;78.20;36.40;;;;;;;-1.88;87.83;99492.69;87246;1308;22510;-77
2022/11/29 08:40:23;;;;;;;63.30;31.10;;;;;;;-2.00;87.71;99472.25;87117;1287;22463;-78
2022/11/29 08:42:24;;;;;;;55.90;28.20;;;;;;;-1.86;87.76;99500.80;87074;1286;99362;-76
2022/11/29 08:44:25;;;;;;;54.40;28.40;;;;;;;-1.89;87.65;99501.64;86984;1286;22507;-78
2022/11/29 08:47:34;;;;;;;60.80;31.00;;;;;;;-1.90;87.58;99504.22;86971;1280;22527;-76
2022/11/29 08:48:48;;;;;;;69.60;34.90;;;;;;;-1.89;87.63;99506.45;86849;1283;22484;-77
2022/11/29 08:50:51;;;;;;;70.00;33.50;;;;;;;-1.85;87.67;99509.08;86967;1292;25354;-78
2022/11/29 08:55:12;;;;;;;69.90;32.40;;;;;;;-1.84;87.77;99497.73;87060;1291;22528;-76
2022/11/29 08:57:13;;;;;;;70.70;35.40;;;;;;;-1.77;87.71;99509.69;86942;1288;24261;-77
2022/11/29 08:59:14;;;;;;;76.50;35.90;;;;;;;-1.73;87.75;99505.60;86619;1280;99351;-77
2022/11/29 09:01:18;;;;;;;78.00;35.30;;;;;;;-1.68;87.80;99502.88;87093;1303;24867;-77
2022/11/29 09:05:39;;;;;;;59.00;30.40;;;;;;;-1.64;87.74;99506.89;86933;1288;98931;-78
2022/11/29 09:07:40;;;;;;;70.80;33.50;;;;;;;-1.64;87.68;99506.37;86994;1284;22513;-78
2022/11/29 09:09:41;;;;;;;91.90;36.40;;;;;;;-1.62;87.63;99501.90;86773;1294;22439;-78
2022/11/29 09:11:45;;;;;;;101.50;35.20;;;;;;;-1.62;87.70;99502.42;87000;1277;98581;-76
2022/11/29 09:13:50;;;;;;;123.30;36.90;;;;;;;-1.63;87.67;99496.91;86941;1284;22490;-76
2022/11/29 09:15:51;;;;;;;91.00;35.30;;;;;;;-1.63;87.57;99498.64;87013;1284;24437;-77
2022/11/29 09:17:52;;;;;;;126.70;38.50;;;;;;;-1.62;87.66;99498.80;86727;1292;98387;-76
2022/11/29 09:19:57;;;;;;;102.90;39.00;;;;;;;-1.60;87.69;99501.08;87015;1293;25528;-77
2022/11/29 09:21:58;;;;;;;97.60;40.20;;;;;;;-1.56;87.78;99495.76;86911;1285;24753;-79
2022/11/29 09:24:00;;;;;;;105.60;37.30;;;;;;;-1.52;87.86;99498.72;86391;1285;99766;-74
2022/11/29 09:26:03;;;;;;;85.30;35.60;;;;;;;-1.49;87.74;99493.41;86231;1306;22484;-76
2022/11/29 09:28:04;;;;;;;84.20;37.60;;;;;;;-1.62;87.79;99475.38;86368;1305;24332;-74
2022/11/29 09:30:08;;;;;;;88.00;39.50;;;;;;;-1.44;87.87;99498.10;86417;1288;98169;-75
2022/11/29 09:32:09;;;;;;;93.00;35.20;;;;;;;-1.40;87.93;99493.14;86674;1307;25930;-76
2022/11/29 09:34:13;;;;;;;;;;;;;;;-1.35;87.93;99490.94;86949;1308;22461;-76
2022/11/29 09:36:15;;;;;;;71.80;34.60;;;;;;;-1.34;87.90;99489.06;87392;1286;84141;-75
2022/11/29 09:38:16;;;;;;;96.50;37.40;;;;;;;-1.31;87.90;99492.86;87639;1294;22474;-75
2022/11/29 09:40:28;;;;;;;86.40;36.60;;;;;;;-1.30;87.82;99488.73;88145;1307;21964;-76
2022/11/29 09:43:07;;;;;;;91.90;39.20;;;;;;;-1.28;87.93;99490.48;86782;1293;98216;-75
2022/11/29 09:45:09;;;;;;;86.50;41.90;;;;;;;-1.26;87.83;99489.64;86767;1277;22530;-76
2022/11/29 09:47:32;;;;;;;99.30;49.50;;;;;;;-1.24;87.70;99490.16;86594;1280;98454;-75
2022/11/29 09:49:39;;;;;;;92.50;43.10;;;;;;;-1.22;87.81;99484.33;86688;1277;27048;-77
2022/11/29 09:51:43;;;;;;;90.00;36.50;;;;;;;-1.20;87.88;99486.94;86707;1277;22802;-76
2022/11/29 09:54:21;;;;;;;100.80;39.00;;;;;;;-1.19;87.87;99486.93;86698;1283;99168;-75
2022/11/29 09:56:39;;;;;;;93.00;36.50;;;;;;;-1.16;87.81;99487.80;86630;1300;22498;-77
2022/11/29 09:58:51;;;;;;;85.00;36.70;;;;;;;-1.15;87.77;99486.79;86591;1287;22992;-76
2022/11/29 10:01:01;;;;;;;91.90;35.90;;;;;;;-1.14;87.79;99485.59;86656;1284;23450;-77
2022/11/29 10:03:18;;;;;;;65.70;32.90;;;;;;;-1.18;87.81;99482.11;86621;1276;22474;-79
2022/11/29 10:05:37;;;;;;;74.20;33.40;;;;;;;-1.18;87.67;99489.17;86494;1287;100298;-77
2022/11/29 10:07:45;;;;;;;74.60;34.80;;;;;;;-1.19;87.63;99486.08;86698;1277;22557;-75
2022/11/29 10:09:56;;;;;;;75.40;35.10;;;;;;;-1.19;87.57;99486.75;86657;1287;22497;-76
2022/11/29 10:12:19;;;;;;;114.30;37.90;;;;;;;-1.21;87.67;99491.73;86511;1289;99749;-76
2022/11/29 10:14:26;;;;;;;90.80;38.90;;;;;;;-1.20;87.70;99488.48;86756;1283;22511;-76